sensor_id;sensor_type;location;lat;lon;timestamp;pressure;altitude;pressure_sealevel;temperature;humidity
2711;BME280;20721;47.402;8.550;2023-01-10T00:01:33;95960;;;5.39;65.90
2711;BME280;20721;47.402;8.550;2023-01-10T00:02:33;95961;;;5.42;65.80
2711;BME280;20721;47.402;8.550;2023-01-10T00:03:33;95963;;;5.48;65.83
2711;BME280;20721;47.402;8.550;2023-01-10T00:05:33;95962;;;5.56;65.52
2711;BME280;20721;47.402;8.550;2023-01-10T00:06:33;95965;;;5.55;65.35
2711;BME280;20721;47.402;8.550;2023-01-10T00:08:33;95973;;;5.56;65.48
2711;BME280;20721;47.402;8.550;2023-01-10T00:09:33;95972;;;5.52;65.27
2711;BME280;20721;47.402;8.550;2023-01-10T00:10:33;95969;;;5.53;65.68
2711;BME280;20721;47.402;8.550;2023-01-10T00:11:43;95972;;;5.54;65.60
2711;BME280;20721;47.402;8.550;2023-01-10T00:12:43;95976;;;5.56;65.48
2711;BME280;20721;47.402;8.550;2023-01-10T00:13:33;95975;;;5.57;65.44
2711;BME280;20721;47.402;8.550;2023-01-10T00:14:34;95981;;;5.51;65.20
2711;BME280;20721;47.402;8.550;2023-01-10T00:17:33;95986;;;5.52;65.41
2711;BME280;20721;47.402;8.550;2023-01-10T00:18:33;95985;;;5.54;65.66
2711;BME280;20721;47.402;8.550;2023-01-10T00:19:33;95990;;;5.55;65.71
2711;BME280;20721;47.402;8.550;2023-01-10T00:20:33;95993;;;5.54;65.58
2711;BME280;20721;47.402;8.550;2023-01-10T00:21:33;96002;;;5.49;65.61
2711;BME280;20721;47.402;8.550;2023-01-10T00:22:33;95996;;;5.47;65.89
2711;BME280;20721;47.402;8.550;2023-01-10T00:23:33;96001;;;5.49;66.06
2711;BME280;20721;47.402;8.550;2023-01-10T00:25:34;96010;;;5.54;66.18
2711;BME280;20721;47.402;8.550;2023-01-10T00:26:33;96005;;;5.59;65.97
2711;BME280;20721;47.402;8.550;2023-01-10T00:27:34;96010;;;5.56;66.02
2711;BME280;20721;47.402;8.550;2023-01-10T00:28:34;96011;;;5.59;65.99
2711;BME280;20721;47.402;8.550;2023-01-10T00:29:34;96015;;;5.57;65.83
2711;BME280;20721;47.402;8.550;2023-01-10T00:30:34;96015;;;5.59;65.83
2711;BME280;20721;47.402;8.550;2023-01-10T00:31:33;96012;;;5.56;65.92
2711;BME280;20721;47.402;8.550;2023-01-10T00:32:33;96022;;;5.60;66.02
2711;BME280;20721;47.402;8.550;2023-01-10T00:33:33;96019;;;5.64;66.11
2711;BME280;20721;47.402;8.550;2023-01-10T00:34:34;96027;;;5.69;66.02
2711;BME280;20721;47.402;8.550;2023-01-10T00:35:33;96030;;;5.74;65.81
2711;BME280;20721;47.402;8.550;2023-01-10T00:37:33;96030;;;5.72;65.89
2711;BME280;20721;47.402;8.550;2023-01-10T00:38:33;96035;;;5.74;65.86
2711;BME280;20721;47.402;8.550;2023-01-10T00:39:33;96036;;;5.73;65.79
2711;BME280;20721;47.402;8.550;2023-01-10T00:40:33;96036;;;5.75;66.01
2711;BME280;20721;47.402;8.550;2023-01-10T00:41:43;96038;;;5.80;65.89
2711;BME280;20721;47.402;8.550;2023-01-10T00:42:43;96040;;;5.85;65.68
2711;BME280;20721;47.402;8.550;2023-01-10T00:43:43;96042;;;5.70;65.66
2711;BME280;20721;47.402;8.550;2023-01-10T00:45:33;96044;;;5.71;66.13
2711;BME280;20721;47.402;8.550;2023-01-10T00:46:33;96046;;;5.75;66.04
2711;BME280;20721;47.402;8.550;2023-01-10T00:47:33;96047;;;5.80;66.15
2711;BME280;20721;47.402;8.550;2023-01-10T00:48:33;96047;;;5.81;65.92
2711;BME280;20721;47.402;8.550;2023-01-10T00:49:33;96058;;;5.84;65.96
2711;BME280;20721;47.402;8.550;2023-01-10T00:51:33;96059;;;5.81;65.83
2711;BME280;20721;47.402;8.550;2023-01-10T00:52:33;96058;;;5.80;65.96
2711;BME280;20721;47.402;8.550;2023-01-10T00:53:33;96058;;;5.82;66.22
2711;BME280;20721;47.402;8.550;2023-01-10T00:54:33;96062;;;5.85;66.14
2711;BME280;20721;47.402;8.550;2023-01-10T00:55:33;96068;;;5.82;66.08
2711;BME280;20721;47.402;8.550;2023-01-10T00:57:33;96069;;;5.81;66.44
2711;BME280;20721;47.402;8.550;2023-01-10T00:58:33;96071;;;5.80;66.29
2711;BME280;20721;47.402;8.550;2023-01-10T00:59:33;96076;;;5.82;66.35
2711;BME280;20721;47.402;8.550;2023-01-10T01:00:33;96082;;;5.84;66.46
2711;BME280;20721;47.402;8.550;2023-01-10T01:01:33;96083;;;5.81;66.30
2711;BME280;20721;47.402;8.550;2023-01-10T01:02:33;96087;;;5.82;66.33
2711;BME280;20721;47.402;8.550;2023-01-10T01:03:33;96089;;;5.88;66.39
2711;BME280;20721;47.402;8.550;2023-01-10T01:04:33;96089;;;5.92;66.46
2711;BME280;20721;47.402;8.550;2023-01-10T01:05:38;96086;;;5.89;66.19
2711;BME280;20721;47.402;8.550;2023-01-10T01:06:33;96096;;;5.86;66.20
2711;BME280;20721;47.402;8.550;2023-01-10T01:07:33;96098;;;5.81;66.32
2711;BME280;20721;47.402;8.550;2023-01-10T01:08:33;96095;;;5.84;66.45
2711;BME280;20721;47.402;8.550;2023-01-10T01:09:33;96099;;;5.86;66.45
2711;BME280;20721;47.402;8.550;2023-01-10T01:11:33;96105;;;5.92;66.33
2711;BME280;20721;47.402;8.550;2023-01-10T01:12:33;96103;;;5.96;66.17
2711;BME280;20721;47.402;8.550;2023-01-10T01:13:33;96107;;;5.97;66.17
2711;BME280;20721;47.402;8.550;2023-01-10T01:14:33;96107;;;5.88;66.05
2711;BME280;20721;47.402;8.550;2023-01-10T01:15:34;96116;;;5.73;66.30
2711;BME280;20721;47.402;8.550;2023-01-10T01:16:33;96110;;;5.69;66.57
2711;BME280;20721;47.402;8.550;2023-01-10T01:17:33;96120;;;5.76;66.76
2711;BME280;20721;47.402;8.550;2023-01-10T01:18:33;96125;;;5.84;66.79
2711;BME280;20721;47.402;8.550;2023-01-10T01:19:33;96125;;;5.90;66.45
2711;BME280;20721;47.402;8.550;2023-01-10T01:20:33;96127;;;5.93;66.29
2711;BME280;20721;47.402;8.550;2023-01-10T01:21:33;96132;;;5.95;66.09
2711;BME280;20721;47.402;8.550;2023-01-10T01:22:33;96140;;;6.03;66.24
2711;BME280;20721;47.402;8.550;2023-01-10T01:23:33;96138;;;6.00;65.85
2711;BME280;20721;47.402;8.550;2023-01-10T01:24:33;96143;;;6.04;65.93
2711;BME280;20721;47.402;8.550;2023-01-10T01:25:33;96145;;;6.03;65.71
2711;BME280;20721;47.402;8.550;2023-01-10T01:26:34;96145;;;6.02;65.86
2711;BME280;20721;47.402;8.550;2023-01-10T01:27:34;96149;;;6.06;65.51
2711;BME280;20721;47.402;8.550;2023-01-10T01:28:33;96149;;;6.03;65.50
2711;BME280;20721;47.402;8.550;2023-01-10T01:29:43;96155;;;6.04;65.63
2711;BME280;20721;47.402;8.550;2023-01-10T01:30:33;96159;;;6.09;65.78
2711;BME280;20721;47.402;8.550;2023-01-10T01:32:33;96160;;;6.02;65.59
2711;BME280;20721;47.402;8.550;2023-01-10T01:33:33;96164;;;5.94;65.66
2711;BME280;20721;47.402;8.550;2023-01-10T01:34:33;96166;;;5.91;65.90
2711;BME280;20721;47.402;8.550;2023-01-10T01:35:33;96168;;;5.93;65.99
2711;BME280;20721;47.402;8.550;2023-01-10T01:36:33;96170;;;5.87;66.03
2711;BME280;20721;47.402;8.550;2023-01-10T01:37:33;96170;;;5.90;66.25
2711;BME280;20721;47.402;8.550;2023-01-10T01:39:33;96175;;;5.91;66.09
2711;BME280;20721;47.402;8.550;2023-01-10T01:40:33;96178;;;5.89;66.22
2711;BME280;20721;47.402;8.550;2023-01-10T01:42:34;96175;;;5.88;66.35
2711;BME280;20721;47.402;8.550;2023-01-10T01:43:56;96175;;;5.83;66.16
2711;BME280;20721;47.402;8.550;2023-01-10T01:44:35;96181;;;5.71;66.06
2711;BME280;20721;47.402;8.550;2023-01-10T01:45:35;96182;;;5.61;66.35
2711;BME280;20721;47.402;8.550;2023-01-10T01:46:34;96185;;;5.55;66.85
2711;BME280;20721;47.402;8.550;2023-01-10T01:47:35;96189;;;5.46;66.95
2711;BME280;20721;47.402;8.550;2023-01-10T01:48:35;96194;;;5.50;67.01
2711;BME280;20721;47.402;8.550;2023-01-10T01:49:34;96184;;;5.45;67.13
2711;BME280;20721;47.402;8.550;2023-01-10T01:50:36;96192;;;5.49;67.27
2711;BME280;20721;47.402;8.550;2023-01-10T01:51:33;96190;;;5.42;67.30
2711;BME280;20721;47.402;8.550;2023-01-10T01:52:33;96189;;;5.45;67.33
2711;BME280;20721;47.402;8.550;2023-01-10T01:53:35;96188;;;5.44;67.14
2711;BME280;20721;47.402;8.550;2023-01-10T01:54:33;96183;;;5.47;67.20
2711;BME280;20721;47.402;8.550;2023-01-10T01:55:33;96188;;;5.50;66.87
2711;BME280;20721;47.402;8.550;2023-01-10T01:57:33;96197;;;5.47;66.88
2711;BME280;20721;47.402;8.550;2023-01-10T01:58:38;96197;;;5.40;66.79
2711;BME280;20721;47.402;8.550;2023-01-10T01:59:35;96201;;;5.41;66.91
2711;BME280;20721;47.402;8.550;2023-01-10T02:01:33;96206;;;5.36;66.91
2711;BME280;20721;47.402;8.550;2023-01-10T02:03:33;96207;;;5.31;66.81
2711;BME280;20721;47.402;8.550;2023-01-10T02:04:37;96204;;;5.36;66.91
2711;BME280;20721;47.402;8.550;2023-01-10T02:05:33;96205;;;5.38;66.73
2711;BME280;20721;47.402;8.550;2023-01-10T02:06:33;96204;;;5.36;66.57
2711;BME280;20721;47.402;8.550;2023-01-10T02:07:34;96210;;;5.43;66.48
2711;BME280;20721;47.402;8.550;2023-01-10T02:08:33;96216;;;5.46;66.33
2711;BME280;20721;47.402;8.550;2023-01-10T02:10:36;96216;;;5.63;66.17
2711;BME280;20721;47.402;8.550;2023-01-10T02:11:33;96221;;;5.70;66.01
2711;BME280;20721;47.402;8.550;2023-01-10T02:12:33;96220;;;5.73;65.75
2711;BME280;20721;47.402;8.550;2023-01-10T02:14:33;96228;;;5.70;65.28
2711;BME280;20721;47.402;8.550;2023-01-10T02:15:33;96233;;;5.73;65.18
2711;BME280;20721;47.402;8.550;2023-01-10T02:16:33;96238;;;5.69;64.97
2711;BME280;20721;47.402;8.550;2023-01-10T02:18:33;96239;;;5.68;65.08
2711;BME280;20721;47.402;8.550;2023-01-10T02:20:37;96241;;;5.60;65.19
2711;BME280;20721;47.402;8.550;2023-01-10T02:21:40;96243;;;5.62;65.21
2711;BME280;20721;47.402;8.550;2023-01-10T02:23:45;96240;;;5.68;65.22
2711;BME280;20721;47.402;8.550;2023-01-10T02:31:48;96265;;;5.71;64.44
2711;BME280;20721;47.402;8.550;2023-01-10T02:32:46;96269;;;5.69;64.07
2711;BME280;20721;47.402;8.550;2023-01-10T02:33:36;96267;;;5.70;64.04
2711;BME280;20721;47.402;8.550;2023-01-10T02:34:39;96273;;;5.73;64.42
2711;BME280;20721;47.402;8.550;2023-01-10T02:35:36;96280;;;5.81;64.13
2711;BME280;20721;47.402;8.550;2023-01-10T02:36:35;96280;;;5.80;63.87
2711;BME280;20721;47.402;8.550;2023-01-10T02:38:35;96278;;;5.78;63.97
2711;BME280;20721;47.402;8.550;2023-01-10T02:39:35;96287;;;5.82;64.23
2711;BME280;20721;47.402;8.550;2023-01-10T02:40:51;96285;;;5.83;64.05
2711;BME280;20721;47.402;8.550;2023-01-10T02:41:37;96289;;;5.84;64.30
2711;BME280;20721;47.402;8.550;2023-01-10T02:43:34;96301;;;5.95;64.08
2711;BME280;20721;47.402;8.550;2023-01-10T02:44:49;96306;;;6.04;63.56
2711;BME280;20721;47.402;8.550;2023-01-10T02:45:35;96305;;;6.10;63.27
2711;BME280;20721;47.402;8.550;2023-01-10T02:46:33;96305;;;6.12;62.73
2711;BME280;20721;47.402;8.550;2023-01-10T02:47:34;96309;;;6.18;62.70
2711;BME280;20721;47.402;8.550;2023-01-10T02:48:33;96311;;;6.21;62.56
2711;BME280;20721;47.402;8.550;2023-01-10T02:49:50;96304;;;6.20;62.80
2711;BME280;20721;47.402;8.550;2023-01-10T02:51:33;96295;;;6.18;62.79
2711;BME280;20721;47.402;8.550;2023-01-10T02:52:33;96297;;;6.20;62.66
2711;BME280;20721;47.402;8.550;2023-01-10T02:53:35;96295;;;6.22;62.30
2711;BME280;20721;47.402;8.550;2023-01-10T02:54:33;96295;;;6.25;61.97
2711;BME280;20721;47.402;8.550;2023-01-10T02:55:38;96293;;;6.24;61.93
2711;BME280;20721;47.402;8.550;2023-01-10T02:56:41;96302;;;6.19;61.94
2711;BME280;20721;47.402;8.550;2023-01-10T03:00:43;96308;;;6.01;62.19
2711;BME280;20721;47.402;8.550;2023-01-10T03:03:44;96318;;;6.07;62.50
2711;BME280;20721;47.402;8.550;2023-01-10T03:06:37;96328;;;6.18;61.94
2711;BME280;20721;47.402;8.550;2023-01-10T03:09:38;96341;;;6.26;62.13
2711;BME280;20721;47.402;8.550;2023-01-10T03:10:39;96342;;;6.20;61.38
2711;BME280;20721;47.402;8.550;2023-01-10T03:11:41;96346;;;6.21;61.64
2711;BME280;20721;47.402;8.550;2023-01-10T03:12:36;96345;;;6.16;61.82
2711;BME280;20721;47.402;8.550;2023-01-10T03:13:35;96349;;;6.19;61.94
2711;BME280;20721;47.402;8.550;2023-01-10T03:14:33;96348;;;6.08;62.27
2711;BME280;20721;47.402;8.550;2023-01-10T03:15:34;96346;;;5.95;62.58
2711;BME280;20721;47.402;8.550;2023-01-10T03:16:33;96353;;;5.91;62.33
2711;BME280;20721;47.402;8.550;2023-01-10T03:18:36;96356;;;5.89;62.65
2711;BME280;20721;47.402;8.550;2023-01-10T03:19:35;96355;;;5.88;62.59
2711;BME280;20721;47.402;8.550;2023-01-10T03:20:34;96358;;;5.93;62.69
2711;BME280;20721;47.402;8.550;2023-01-10T03:21:33;96356;;;5.96;62.47
2711;BME280;20721;47.402;8.550;2023-01-10T03:22:34;96355;;;5.90;62.28
2711;BME280;20721;47.402;8.550;2023-01-10T03:23:33;96359;;;5.88;62.70
2711;BME280;20721;47.402;8.550;2023-01-10T03:25:34;96351;;;5.82;62.63
2711;BME280;20721;47.402;8.550;2023-01-10T03:27:38;96358;;;5.58;63.63
2711;BME280;20721;47.402;8.550;2023-01-10T03:29:37;96370;;;5.56;63.77
2711;BME280;20721;47.402;8.550;2023-01-10T03:30:42;96363;;;5.54;63.64
2711;BME280;20721;47.402;8.550;2023-01-10T03:31:35;96377;;;5.56;63.57
2711;BME280;20721;47.402;8.550;2023-01-10T03:32:33;96375;;;5.61;63.47
2711;BME280;20721;47.402;8.550;2023-01-10T03:34:33;96383;;;5.50;63.62
2711;BME280;20721;47.402;8.550;2023-01-10T03:38:41;96395;;;5.58;63.64
2711;BME280;20721;47.402;8.550;2023-01-10T03:40:40;96393;;;5.69;63.57
2711;BME280;20721;47.402;8.550;2023-01-10T03:41:35;96399;;;5.75;63.48
2711;BME280;20721;47.402;8.550;2023-01-10T03:44:48;96415;;;5.87;63.08
2711;BME280;20721;47.402;8.550;2023-01-10T03:45:36;96416;;;5.94;63.18
2711;BME280;20721;47.402;8.550;2023-01-10T03:46:36;96417;;;5.92;62.70
2711;BME280;20721;47.402;8.550;2023-01-10T03:48:35;96422;;;5.91;62.56
2711;BME280;20721;47.402;8.550;2023-01-10T03:49:34;96425;;;5.93;62.74
2711;BME280;20721;47.402;8.550;2023-01-10T03:50:33;96432;;;5.94;62.64
2711;BME280;20721;47.402;8.550;2023-01-10T03:51:33;96426;;;5.98;62.79
2711;BME280;20721;47.402;8.550;2023-01-10T03:52:33;96427;;;6.05;62.95
2711;BME280;20721;47.402;8.550;2023-01-10T03:53:33;96428;;;6.07;62.66
2711;BME280;20721;47.402;8.550;2023-01-10T03:54:33;96432;;;6.08;62.66
2711;BME280;20721;47.402;8.550;2023-01-10T03:55:34;96436;;;6.12;62.79
2711;BME280;20721;47.402;8.550;2023-01-10T03:56:49;96443;;;6.14;62.35
2711;BME280;20721;47.402;8.550;2023-01-10T03:57:33;96443;;;6.12;62.23
2711;BME280;20721;47.402;8.550;2023-01-10T03:58:33;96439;;;6.10;62.28
2711;BME280;20721;47.402;8.550;2023-01-10T03:59:33;96440;;;6.06;62.47
2711;BME280;20721;47.402;8.550;2023-01-10T04:00:33;96438;;;6.02;62.43
2711;BME280;20721;47.402;8.550;2023-01-10T04:01:33;96444;;;5.97;62.51
2711;BME280;20721;47.402;8.550;2023-01-10T04:02:33;96448;;;6.01;62.76
2711;BME280;20721;47.402;8.550;2023-01-10T04:03:33;96447;;;6.00;62.39
2711;BME280;20721;47.402;8.550;2023-01-10T04:04:33;96449;;;5.97;62.54
2711;BME280;20721;47.402;8.550;2023-01-10T04:05:34;96454;;;5.95;62.70
2711;BME280;20721;47.402;8.550;2023-01-10T04:06:33;96450;;;5.94;62.68
2711;BME280;20721;47.402;8.550;2023-01-10T04:07:33;96452;;;5.87;62.69
2711;BME280;20721;47.402;8.550;2023-01-10T04:08:33;96451;;;5.88;62.79
2711;BME280;20721;47.402;8.550;2023-01-10T04:09:33;96457;;;5.85;62.84
2711;BME280;20721;47.402;8.550;2023-01-10T04:10:33;96461;;;5.89;62.91
2711;BME280;20721;47.402;8.550;2023-01-10T04:11:33;96464;;;5.87;63.01
2711;BME280;20721;47.402;8.550;2023-01-10T04:12:33;96469;;;5.84;62.95
2711;BME280;20721;47.402;8.550;2023-01-10T04:15:33;96465;;;5.83;63.24
2711;BME280;20721;47.402;8.550;2023-01-10T04:16:33;96468;;;5.77;63.19
2711;BME280;20721;47.402;8.550;2023-01-10T04:19:33;96468;;;5.74;63.39
2711;BME280;20721;47.402;8.550;2023-01-10T04:20:33;96467;;;5.71;63.43
2711;BME280;20721;47.402;8.550;2023-01-10T04:21:33;96470;;;5.69;63.77
2711;BME280;20721;47.402;8.550;2023-01-10T04:22:33;96471;;;5.63;63.83
2711;BME280;20721;47.402;8.550;2023-01-10T04:23:33;96469;;;5.59;63.89
2711;BME280;20721;47.402;8.550;2023-01-10T04:24:33;96469;;;5.60;63.91
2711;BME280;20721;47.402;8.550;2023-01-10T04:25:33;96468;;;5.51;64.24
2711;BME280;20721;47.402;8.550;2023-01-10T04:26:33;96472;;;5.53;64.30
2711;BME280;20721;47.402;8.550;2023-01-10T04:27:33;96466;;;5.56;64.17
2711;BME280;20721;47.402;8.550;2023-01-10T04:28:33;96473;;;5.59;64.02
2711;BME280;20721;47.402;8.550;2023-01-10T04:29:33;96472;;;5.63;63.84
2711;BME280;20721;47.402;8.550;2023-01-10T04:30:33;96477;;;5.61;63.70
2711;BME280;20721;47.402;8.550;2023-01-10T04:31:33;96480;;;5.63;63.82
2711;BME280;20721;47.402;8.550;2023-01-10T04:32:34;96481;;;5.64;63.94
2711;BME280;20721;47.402;8.550;2023-01-10T04:33:33;96484;;;5.69;63.76
2711;BME280;20721;47.402;8.550;2023-01-10T04:34:33;96484;;;5.72;63.78
2711;BME280;20721;47.402;8.550;2023-01-10T04:35:33;96493;;;5.66;63.80
2711;BME280;20721;47.402;8.550;2023-01-10T04:36:34;96499;;;5.67;64.00
2711;BME280;20721;47.402;8.550;2023-01-10T04:37:33;96499;;;5.68;63.92
2711;BME280;20721;47.402;8.550;2023-01-10T04:38:33;96500;;;5.70;63.94
2711;BME280;20721;47.402;8.550;2023-01-10T04:39:33;96499;;;5.72;64.03
2711;BME280;20721;47.402;8.550;2023-01-10T04:40:33;96506;;;5.76;63.95
2711;BME280;20721;47.402;8.550;2023-01-10T04:41:33;96501;;;5.77;63.78
2711;BME280;20721;47.402;8.550;2023-01-10T04:42:33;96503;;;5.78;64.09
2711;BME280;20721;47.402;8.550;2023-01-10T04:43:34;96504;;;5.81;63.96
2711;BME280;20721;47.402;8.550;2023-01-10T04:44:33;96502;;;5.84;64.01
2711;BME280;20721;47.402;8.550;2023-01-10T04:45:33;96505;;;5.83;63.99
2711;BME280;20721;47.402;8.550;2023-01-10T04:46:34;96506;;;5.78;64.17
2711;BME280;20721;47.402;8.550;2023-01-10T04:48:35;96510;;;5.80;64.34
2711;BME280;20721;47.402;8.550;2023-01-10T04:49:33;96512;;;5.74;64.15
2711;BME280;20721;47.402;8.550;2023-01-10T04:50:33;96510;;;5.70;64.15
2711;BME280;20721;47.402;8.550;2023-01-10T04:52:33;96514;;;5.75;64.46
2711;BME280;20721;47.402;8.550;2023-01-10T04:53:33;96514;;;5.81;64.23
2711;BME280;20721;47.402;8.550;2023-01-10T04:54:33;96512;;;5.87;64.15
2711;BME280;20721;47.402;8.550;2023-01-10T04:55:33;96514;;;5.91;64.05
2711;BME280;20721;47.402;8.550;2023-01-10T04:57:33;96513;;;5.92;63.50
2711;BME280;20721;47.402;8.550;2023-01-10T04:59:33;96521;;;5.93;63.68
2711;BME280;20721;47.402;8.550;2023-01-10T05:00:33;96523;;;5.96;63.59
2711;BME280;20721;47.402;8.550;2023-01-10T05:01:36;96529;;;6.03;63.62
2711;BME280;20721;47.402;8.550;2023-01-10T05:02:34;96535;;;6.07;63.68
2711;BME280;20721;47.402;8.550;2023-01-10T05:03:33;96536;;;6.03;63.22
2711;BME280;20721;47.402;8.550;2023-01-10T05:04:33;96541;;;6.09;63.15
2711;BME280;20721;47.402;8.550;2023-01-10T05:05:33;96544;;;6.01;63.35
2711;BME280;20721;47.402;8.550;2023-01-10T05:06:33;96545;;;5.95;63.47
2711;BME280;20721;47.402;8.550;2023-01-10T05:07:33;96544;;;5.93;63.84
2711;BME280;20721;47.402;8.550;2023-01-10T05:08:33;96540;;;5.95;63.59
2711;BME280;20721;47.402;8.550;2023-01-10T05:09:33;96546;;;5.90;63.26
2711;BME280;20721;47.402;8.550;2023-01-10T05:10:33;96550;;;5.86;63.50
2711;BME280;20721;47.402;8.550;2023-01-10T05:11:33;96549;;;5.80;63.15
2711;BME280;20721;47.402;8.550;2023-01-10T05:12:33;96548;;;5.79;63.37
2711;BME280;20721;47.402;8.550;2023-01-10T05:13:33;96551;;;5.83;63.74
2711;BME280;20721;47.402;8.550;2023-01-10T05:14:33;96556;;;5.88;63.59
2711;BME280;20721;47.402;8.550;2023-01-10T05:15:34;96557;;;5.94;63.46
2711;BME280;20721;47.402;8.550;2023-01-10T05:16:35;96559;;;5.99;63.21
2711;BME280;20721;47.402;8.550;2023-01-10T05:17:33;96564;;;6.00;63.18
2711;BME280;20721;47.402;8.550;2023-01-10T05:18:33;96559;;;5.93;63.04
2711;BME280;20721;47.402;8.550;2023-01-10T05:19:33;96561;;;5.85;63.21
2711;BME280;20721;47.402;8.550;2023-01-10T05:20:33;96566;;;5.84;63.22
2711;BME280;20721;47.402;8.550;2023-01-10T05:21:33;96568;;;5.79;63.28
2711;BME280;20721;47.402;8.550;2023-01-10T05:22:33;96566;;;5.56;63.31
2711;BME280;20721;47.402;8.550;2023-01-10T05:23:34;96574;;;5.50;63.79
2711;BME280;20721;47.402;8.550;2023-01-10T05:24:33;96570;;;5.51;63.96
2711;BME280;20721;47.402;8.550;2023-01-10T05:25:34;96578;;;5.57;64.01
2711;BME280;20721;47.402;8.550;2023-01-10T05:26:33;96577;;;5.65;63.84
2711;BME280;20721;47.402;8.550;2023-01-10T05:27:33;96579;;;5.70;63.52
2711;BME280;20721;47.402;8.550;2023-01-10T05:28:33;96582;;;5.69;63.35
2711;BME280;20721;47.402;8.550;2023-01-10T05:29:34;96584;;;5.62;63.54
2711;BME280;20721;47.402;8.550;2023-01-10T05:31:34;96594;;;5.65;63.25
2711;BME280;20721;47.402;8.550;2023-01-10T05:32:34;96597;;;5.72;63.44
2711;BME280;20721;47.402;8.550;2023-01-10T05:33:34;96601;;;5.75;63.21
2711;BME280;20721;47.402;8.550;2023-01-10T05:34:34;96604;;;5.81;63.17
2711;BME280;20721;47.402;8.550;2023-01-10T05:35:33;96608;;;5.84;62.63
2711;BME280;20721;47.402;8.550;2023-01-10T05:36:33;96605;;;5.81;62.60
2711;BME280;20721;47.402;8.550;2023-01-10T05:37:33;96607;;;5.83;62.67
2711;BME280;20721;47.402;8.550;2023-01-10T05:38:33;96602;;;5.84;62.47
2711;BME280;20721;47.402;8.550;2023-01-10T05:39:34;96607;;;5.82;62.71
2711;BME280;20721;47.402;8.550;2023-01-10T05:40:33;96612;;;5.77;62.65
2711;BME280;20721;47.402;8.550;2023-01-10T05:41:33;96616;;;5.79;62.56
2711;BME280;20721;47.402;8.550;2023-01-10T05:42:34;96616;;;5.82;62.70
2711;BME280;20721;47.402;8.550;2023-01-10T05:43:34;96614;;;5.90;62.88
2711;BME280;20721;47.402;8.550;2023-01-10T05:44:34;96619;;;5.98;62.63
2711;BME280;20721;47.402;8.550;2023-01-10T05:45:34;96616;;;6.04;62.46
2711;BME280;20721;47.402;8.550;2023-01-10T05:46:33;96610;;;6.09;62.34
2711;BME280;20721;47.402;8.550;2023-01-10T05:47:34;96607;;;6.12;62.12
2711;BME280;20721;47.402;8.550;2023-01-10T05:48:34;96607;;;6.11;61.89
2711;BME280;20721;47.402;8.550;2023-01-10T05:49:34;96612;;;6.12;62.05
2711;BME280;20721;47.402;8.550;2023-01-10T05:51:33;96611;;;5.97;61.99
2711;BME280;20721;47.402;8.550;2023-01-10T05:52:34;96611;;;5.89;61.99
2711;BME280;20721;47.402;8.550;2023-01-10T05:54:34;96615;;;5.84;62.15
2711;BME280;20721;47.402;8.550;2023-01-10T05:55:34;96617;;;5.86;62.40
2711;BME280;20721;47.402;8.550;2023-01-10T05:56:34;96620;;;5.83;62.27
2711;BME280;20721;47.402;8.550;2023-01-10T05:57:34;96619;;;5.79;62.23
2711;BME280;20721;47.402;8.550;2023-01-10T05:58:34;96623;;;5.77;62.40
2711;BME280;20721;47.402;8.550;2023-01-10T06:00:34;96620;;;5.75;62.31
2711;BME280;20721;47.402;8.550;2023-01-10T06:01:34;96618;;;5.73;62.25
2711;BME280;20721;47.402;8.550;2023-01-10T06:02:34;96617;;;5.69;62.23
2711;BME280;20721;47.402;8.550;2023-01-10T06:03:34;96617;;;5.67;62.57
2711;BME280;20721;47.402;8.550;2023-01-10T06:04:34;96615;;;5.60;62.82
2711;BME280;20721;47.402;8.550;2023-01-10T06:05:34;96621;;;5.56;63.33
2711;BME280;20721;47.402;8.550;2023-01-10T06:06:34;96621;;;5.54;63.51
2711;BME280;20721;47.402;8.550;2023-01-10T06:07:34;96626;;;5.39;63.40
2711;BME280;20721;47.402;8.550;2023-01-10T06:08:35;96630;;;5.32;63.62
2711;BME280;20721;47.402;8.550;2023-01-10T06:10:34;96624;;;5.36;63.68
2711;BME280;20721;47.402;8.550;2023-01-10T06:11:37;96624;;;5.43;63.65
2711;BME280;20721;47.402;8.550;2023-01-10T06:12:34;96624;;;5.38;63.39
2711;BME280;20721;47.402;8.550;2023-01-10T06:13:34;96622;;;5.34;63.39
2711;BME280;20721;47.402;8.550;2023-01-10T06:14:34;96624;;;5.30;63.53
2711;BME280;20721;47.402;8.550;2023-01-10T06:15:34;96631;;;5.28;63.49
2711;BME280;20721;47.402;8.550;2023-01-10T06:16:34;96634;;;5.30;63.52
2711;BME280;20721;47.402;8.550;2023-01-10T06:17:34;96631;;;5.28;63.71
2711;BME280;20721;47.402;8.550;2023-01-10T06:18:34;96637;;;5.34;63.67
2711;BME280;20721;47.402;8.550;2023-01-10T06:19:34;96641;;;5.37;63.44
2711;BME280;20721;47.402;8.550;2023-01-10T06:20:34;96644;;;5.41;63.51
2711;BME280;20721;47.402;8.550;2023-01-10T06:21:34;96644;;;5.44;63.21
2711;BME280;20721;47.402;8.550;2023-01-10T06:22:34;96649;;;5.46;63.07
2711;BME280;20721;47.402;8.550;2023-01-10T06:23:34;96645;;;5.45;63.11
2711;BME280;20721;47.402;8.550;2023-01-10T06:25:36;96656;;;5.50;63.11
2711;BME280;20721;47.402;8.550;2023-01-10T06:26:34;96659;;;5.53;63.15
2711;BME280;20721;47.402;8.550;2023-01-10T06:27:34;96662;;;5.58;63.06
2711;BME280;20721;47.402;8.550;2023-01-10T06:28:34;96664;;;5.61;63.20
2711;BME280;20721;47.402;8.550;2023-01-10T06:30:35;96671;;;5.63;63.09
2711;BME280;20721;47.402;8.550;2023-01-10T06:31:34;96677;;;5.66;63.00
2711;BME280;20721;47.402;8.550;2023-01-10T06:32:34;96673;;;5.63;62.87
2711;BME280;20721;47.402;8.550;2023-01-10T06:33:34;96677;;;5.56;63.10
2711;BME280;20721;47.402;8.550;2023-01-10T06:34:34;96679;;;5.58;63.03
2711;BME280;20721;47.402;8.550;2023-01-10T06:37:34;96681;;;5.48;63.09
2711;BME280;20721;47.402;8.550;2023-01-10T06:38:34;96683;;;5.41;63.17
2711;BME280;20721;47.402;8.550;2023-01-10T06:39:34;96688;;;5.25;63.67
2711;BME280;20721;47.402;8.550;2023-01-10T06:40:34;96696;;;5.26;63.91
2711;BME280;20721;47.402;8.550;2023-01-10T06:41:34;96698;;;5.31;63.87
2711;BME280;20721;47.402;8.550;2023-01-10T06:42:34;96695;;;5.37;63.70
2711;BME280;20721;47.402;8.550;2023-01-10T06:43:34;96697;;;5.38;63.18
2711;BME280;20721;47.402;8.550;2023-01-10T06:44:34;96699;;;5.41;63.21
2711;BME280;20721;47.402;8.550;2023-01-10T06:45:34;96702;;;5.44;63.12
2711;BME280;20721;47.402;8.550;2023-01-10T06:46:34;96710;;;5.47;63.00
2711;BME280;20721;47.402;8.550;2023-01-10T06:47:34;96709;;;5.45;63.27
2711;BME280;20721;47.402;8.550;2023-01-10T06:48:34;96710;;;5.47;63.30
2711;BME280;20721;47.402;8.550;2023-01-10T06:49:34;96712;;;5.50;63.47
2711;BME280;20721;47.402;8.550;2023-01-10T06:50:34;96709;;;5.48;62.81